createdAt,value
2023-05-23T00:04:49.752Z,76.70
2023-05-23T00:09:54.690Z,76.50
2023-05-23T00:14:58.355Z,76.50
2023-05-23T00:20:02.096Z,76.60
2023-05-23T00:25:08.293Z,77.00
2023-05-23T00:30:12.610Z,77.60
2023-05-23T00:35:16.628Z,77.90
2023-05-23T00:40:21.878Z,78.30
2023-05-23T00:45:25.432Z,78.70
2023-05-23T00:50:31.334Z,79.10
2023-05-23T00:55:37.453Z,79.50
2023-05-23T01:00:40.757Z,79.60
2023-05-23T01:05:44.572Z,79.70
2023-05-23T01:10:50.103Z,80.00
2023-05-23T01:16:02.704Z,80.20
2023-05-23T01:21:11.295Z,80.70
2023-05-23T01:26:32.753Z,81.30
2023-05-23T01:31:39.568Z,81.90
2023-05-23T01:36:45.316Z,82.30
2023-05-23T01:41:50.072Z,82.70
2023-05-23T01:46:55.253Z,83.30
2023-05-23T01:52:00.593Z,84.50
2023-05-23T01:57:05.960Z,86.00
2023-05-23T02:02:11.208Z,87.20
2023-05-23T02:07:14.419Z,89.10
2023-05-23T02:12:17.917Z,90.60
2023-05-23T02:17:24.262Z,91.60
2023-05-23T02:22:27.596Z,92.70
2023-05-23T02:27:31.615Z,93.60
2023-05-23T02:32:38.077Z,94.50
2023-05-23T02:37:41.602Z,95.40
2023-05-23T02:42:44.990Z,96.30
2023-05-23T02:47:49.691Z,97.10
2023-05-23T02:52:53.050Z,97.80
2023-05-23T02:57:58.805Z,98.40
2023-05-23T03:03:03.633Z,99.20
2023-05-23T03:08:07.207Z,99.70
2023-05-23T03:13:10.623Z,99.90
2023-05-23T03:18:16.318Z,99.90
2023-05-23T03:23:19.868Z,99.90
2023-05-23T03:28:23.489Z,99.90
2023-05-23T03:33:29.822Z,99.90
2023-05-23T03:38:33.407Z,99.90
2023-05-23T03:43:36.734Z,99.90
2023-05-23T03:48:41.964Z,99.90
2023-05-23T03:53:45.694Z,99.90
2023-05-23T03:58:50.870Z,99.90
2023-05-23T04:03:56.095Z,99.90
2023-05-23T04:09:02.760Z,99.90
2023-05-23T04:14:08.151Z,99.90
2023-05-23T04:19:13.386Z,99.90
2023-05-23T04:24:16.497Z,99.90
2023-05-23T04:29:20.514Z,99.90
2023-05-23T04:34:26.089Z,99.90
2023-05-23T04:39:30.917Z,99.90
2023-05-23T04:44:53.680Z,99.90
2023-05-23T04:50:03.654Z,99.90
2023-05-23T04:55:08.674Z,99.90
2023-05-23T05:00:14.871Z,99.90
2023-05-23T05:05:19.766Z,99.90
2023-05-23T05:10:24.294Z,99.90
2023-05-23T05:15:27.651Z,99.90
2023-05-23T05:20:35.360Z,99.90
2023-05-23T05:25:41.302Z,99.90
2023-05-23T05:30:46.442Z,99.90
2023-05-23T05:35:52.459Z,99.90
2023-05-23T05:40:55.767Z,99.90
2023-05-23T05:46:00.876Z,99.90
2023-05-23T05:51:06.596Z,99.90
2023-05-23T05:56:10.869Z,99.90
2023-05-23T06:01:15.721Z,99.90
2023-05-23T06:06:20.850Z,99.90
2023-05-23T06:11:25.009Z,99.90
2023-05-23T06:16:28.831Z,99.90
2023-05-23T06:21:33.840Z,99.90
2023-05-23T06:26:38.952Z,99.90
2023-05-23T06:31:42.367Z,99.90
2023-05-23T06:36:48.475Z,99.90
2023-05-23T06:41:52.901Z,99.90
2023-05-23T06:46:58.829Z,99.90
2023-05-23T06:52:03.935Z,99.90
2023-05-23T06:57:07.544Z,99.90
2023-05-23T07:02:11.563Z,99.90
2023-05-23T07:07:17.140Z,99.90
2023-05-23T07:12:21.525Z,99.90
2023-05-23T07:17:25.204Z,99.90
2023-05-23T07:22:30.908Z,99.90
2023-05-23T07:27:34.749Z,99.90
2023-05-23T07:32:38.259Z,99.90
2023-05-23T07:37:45.031Z,99.90
2023-05-23T07:42:49.211Z,99.90
2023-05-23T07:47:52.854Z,99.90
2023-05-23T07:52:58.199Z,99.90
2023-05-23T07:58:05.891Z,99.90
2023-05-23T08:03:10.025Z,99.90
2023-05-23T08:08:21.998Z,99.90
2023-05-23T08:13:26.671Z,99.90
2023-05-23T08:18:56.724Z,99.90
2023-05-23T08:24:01.873Z,99.90
2023-05-23T08:29:05.494Z,99.90
2023-05-23T08:34:09.590Z,99.90
2023-05-23T08:39:16.122Z,99.90
2023-05-23T08:44:30.514Z,99.70
2023-05-23T08:49:39.617Z,99.60
2023-05-23T08:54:45.849Z,99.10
2023-05-23T08:59:53.383Z,98.60
2023-05-23T09:05:00.025Z,98.10
2023-05-23T09:10:08.157Z,97.20
2023-05-23T09:15:13.545Z,96.70
2023-05-23T09:20:19.356Z,96.10
2023-05-23T09:25:33.900Z,95.90
2023-05-23T09:30:37.861Z,95.80
2023-05-23T09:35:46.692Z,95.60
2023-05-23T09:40:51.910Z,95.60
2023-05-23T09:45:56.010Z,95.70
2023-05-23T09:51:01.653Z,96.00
2023-05-23T09:56:12.492Z,96.50
2023-05-23T10:01:17.245Z,96.90
2023-05-23T10:06:27.972Z,97.40
2023-05-23T10:12:22.267Z,97.90
2023-05-23T10:17:33.305Z,98.60
2023-05-23T10:22:37.775Z,99.30
2023-05-23T10:27:43.554Z,99.70
2023-05-23T10:32:47.792Z,99.90
2023-05-23T10:37:58.553Z,99.90
2023-05-23T10:43:09.453Z,99.90
2023-05-23T10:48:35.751Z,99.90
2023-05-23T10:53:40.747Z,99.90
2023-05-23T10:58:45.813Z,99.90
2023-05-23T11:03:55.536Z,99.90
2023-05-23T11:09:07.354Z,99.90
2023-05-23T11:14:13.029Z,99.90
2023-05-23T11:19:28.817Z,99.90
2023-05-23T11:24:54.825Z,99.10
2023-05-23T11:30:01.705Z,97.90
2023-05-23T11:35:06.552Z,97.60
2023-05-23T11:40:29.900Z,97.50
2023-05-23T11:45:35.851Z,98.30
2023-05-23T11:50:47.566Z,99.30
2023-05-23T11:55:53.440Z,99.80
2023-05-23T12:01:02.705Z,99.90
2023-05-23T12:06:06.156Z,99.90
2023-05-23T12:11:09.790Z,99.90
2023-05-23T12:16:16.149Z,99.90
2023-05-23T12:21:19.928Z,99.90
2023-05-23T12:26:24.021Z,99.90
2023-05-23T12:31:29.289Z,99.90
2023-05-23T12:36:33.256Z,99.90
2023-05-23T12:41:37.008Z,99.90
2023-05-23T12:46:41.995Z,99.90
2023-05-23T12:51:45.694Z,99.90
2023-05-23T12:56:49.147Z,99.90
2023-05-23T13:01:54.252Z,99.90
2023-05-23T13:06:58.092Z,99.90
2023-05-23T13:12:01.786Z,99.90
2023-05-23T13:17:07.308Z,99.90
2023-05-23T13:22:11.909Z,99.90
2023-05-23T13:27:15.656Z,99.90
2023-05-23T13:32:20.706Z,99.90
2023-05-23T13:37:24.344Z,99.90
2023-05-23T13:42:28.126Z,99.90
2023-05-23T13:47:32.807Z,99.90
2023-05-23T13:52:36.660Z,99.90
2023-05-23T13:57:40.457Z,99.90
2023-05-23T14:02:45.432Z,99.90
2023-05-23T14:07:49.231Z,99.90
2023-05-23T14:12:52.807Z,99.90
2023-05-23T14:17:57.864Z,99.90
2023-05-23T14:23:01.774Z,99.90
2023-05-23T14:28:05.358Z,99.90
2023-05-23T14:33:11.377Z,99.90
2023-05-23T14:38:15.133Z,99.90
2023-05-23T14:43:18.771Z,99.90
2023-05-23T14:48:23.794Z,99.90
2023-05-23T14:53:28.055Z,99.90
2023-05-23T14:58:31.800Z,99.90
2023-05-23T15:03:37.102Z,99.90
2023-05-23T15:08:41.864Z,99.90
2023-05-23T15:13:45.611Z,99.90
2023-05-23T15:18:50.705Z,99.90
2023-05-23T15:23:54.655Z,99.90
2023-05-23T15:28:58.469Z,99.90
2023-05-23T15:34:03.948Z,99.90
2023-05-23T15:39:07.710Z,99.90
2023-05-23T15:44:13.405Z,99.90
2023-05-23T15:49:26.550Z,99.90
2023-05-23T15:54:30.752Z,99.90
2023-05-23T15:59:34.247Z,99.90
2023-05-23T16:04:39.387Z,99.90
2023-05-23T16:09:43.152Z,99.90
2023-05-23T16:14:46.984Z,99.90
2023-05-23T16:19:51.828Z,99.90
2023-05-23T16:24:55.729Z,99.90
2023-05-23T16:29:59.466Z,99.90
2023-05-23T16:35:04.541Z,99.90
2023-05-23T16:40:09.372Z,99.90
2023-05-23T16:45:13.027Z,99.90
2023-05-23T16:50:18.165Z,99.90
2023-05-23T16:55:21.800Z,99.90
2023-05-23T17:00:25.412Z,99.90
2023-05-23T17:05:30.142Z,99.90
2023-05-23T17:10:33.738Z,99.90
2023-05-23T17:15:37.684Z,99.90
2023-05-23T17:20:43.197Z,99.90
2023-05-23T17:25:46.974Z,99.90
2023-05-23T17:30:51.658Z,99.90
2023-05-23T17:35:56.705Z,99.90
2023-05-23T17:41:00.560Z,99.90
2023-05-23T17:46:04.089Z,99.90
2023-05-23T17:51:09.076Z,99.90
2023-05-23T17:56:12.790Z,99.90
2023-05-23T18:01:16.422Z,99.90
2023-05-23T18:06:21.249Z,99.90
2023-05-23T18:11:25.840Z,99.90
2023-05-23T18:16:29.478Z,99.90
2023-05-23T18:21:34.921Z,99.90
2023-05-23T18:26:42.272Z,99.90
2023-05-23T18:31:46.123Z,99.90
2023-05-23T18:36:50.840Z,99.90
2023-05-23T18:41:54.055Z,99.80
2023-05-23T18:46:57.444Z,99.50
2023-05-23T18:52:02.185Z,99.00
2023-05-23T18:57:05.556Z,98.80
2023-05-23T19:02:08.878Z,98.30
2023-05-23T19:07:13.897Z,98.00
2023-05-23T19:12:17.185Z,97.40
2023-05-23T19:17:20.491Z,96.70
2023-05-23T19:22:27.788Z,96.10
2023-05-23T19:27:32.815Z,95.70
2023-05-23T19:32:36.718Z,95.20
2023-05-23T19:37:41.640Z,95.00
2023-05-23T19:42:45.159Z,94.50
2023-05-23T19:47:48.468Z,94.00
2023-05-23T19:52:53.548Z,93.70
2023-05-23T19:57:56.925Z,93.50
2023-05-23T20:03:00.374Z,93.40
2023-05-23T20:08:04.999Z,93.50
2023-05-23T20:13:08.220Z,93.30
2023-05-23T20:18:11.640Z,93.30
2023-05-23T20:23:16.321Z,93.30
2023-05-23T20:28:21.129Z,93.40
2023-05-23T20:33:24.939Z,93.60
2023-05-23T20:38:30.193Z,93.80
2023-05-23T20:43:37.327Z,94.00
2023-05-23T20:48:41.299Z,94.10
2023-05-23T20:53:46.113Z,94.30
2023-05-23T20:58:49.326Z,94.40
2023-05-23T21:03:52.529Z,94.50
2023-05-23T21:08:57.114Z,94.60
2023-05-23T21:14:00.565Z,94.70
2023-05-23T21:19:03.814Z,94.80
2023-05-23T21:24:08.550Z,94.90
2023-05-23T21:29:11.811Z,94.90
2023-05-23T21:34:23.815Z,95.10
2023-05-23T21:39:39.178Z,95.20
2023-05-23T21:44:47.006Z,95.20
2023-05-23T21:49:50.798Z,95.30
2023-05-23T21:54:55.733Z,95.30
2023-05-23T21:59:59.364Z,95.20
2023-05-23T22:05:02.900Z,95.20
2023-05-23T22:10:09.147Z,95.10
2023-05-23T22:15:12.919Z,95.00
2023-05-23T22:20:16.805Z,94.90
2023-05-23T22:25:21.886Z,94.70
2023-05-23T22:30:25.108Z,94.50
2023-05-23T22:35:28.378Z,94.00
2023-05-23T22:40:33.032Z,93.60
2023-05-23T22:45:40.632Z,93.10
2023-05-23T22:50:44.530Z,92.60
2023-05-23T22:55:49.924Z,92.20
2023-05-23T23:00:53.207Z,92.10
2023-05-23T23:05:57.490Z,92.00
2023-05-23T23:11:02.150Z,92.00
2023-05-23T23:16:06.770Z,92.00
2023-05-23T23:21:10.330Z,92.10
2023-05-23T23:26:15.236Z,92.20
2023-05-23T23:31:18.670Z,92.30
2023-05-23T23:36:22.371Z,92.40
2023-05-23T23:41:27.594Z,92.60
2023-05-23T23:46:31.243Z,92.90
2023-05-23T23:51:34.856Z,93.10
2023-05-23T23:56:39.938Z,93.40
